createdAt,value
2022-10-24T00:00:19.640Z,95660.78
2022-10-24T00:02:50.715Z,95656.16
2022-10-24T00:05:20.492Z,95661.69
2022-10-24T00:07:51.086Z,95649.75
2022-10-24T00:10:21.547Z,95649.63
2022-10-24T00:12:50.909Z,95659.38
2022-10-24T00:15:20.381Z,95669.19
2022-10-24T00:17:51.262Z,95660.34
2022-10-24T00:20:20.922Z,95666.31
2022-10-24T00:22:50.315Z,95678.13
2022-10-24T00:25:19.906Z,95697.84
2022-10-24T00:27:49.269Z,95695.75
2022-10-24T00:30:18.839Z,95701.56
2022-10-24T00:32:49.723Z,95703.31
2022-10-24T00:35:20.024Z,95696.47
2022-10-24T00:37:49.423Z,95690.66
2022-10-24T00:40:21.394Z,95688.31
2022-10-24T00:42:51.705Z,95686.06
2022-10-24T00:45:44.999Z,95677.53
2022-10-24T00:48:23.587Z,95665.16
2022-10-24T00:50:59.695Z,95650.06
2022-10-24T00:53:30.968Z,95639.00
2022-10-24T00:56:06.015Z,95620.94
2022-10-24T00:58:38.355Z,95626.16
2022-10-24T01:01:09.045Z,95626.19
2022-10-24T01:03:40.152Z,95628.66
2022-10-24T01:06:32.052Z,95628.41
2022-10-24T01:09:18.105Z,95620.31
2022-10-24T01:12:07.430Z,95619.78
2022-10-24T01:14:53.779Z,95607.66
2022-10-24T01:17:36.623Z,95596.81
2022-10-24T01:21:06.766Z,95585.44
2022-10-24T01:24:29.811Z,95553.28
2022-10-24T01:27:40.465Z,95544.94
2022-10-24T01:30:13.029Z,95539.59
2022-10-24T01:32:53.217Z,95548.78
2022-10-24T01:35:40.247Z,95550.19
2022-10-24T01:38:18.297Z,95552.59
2022-10-24T01:40:54.877Z,95544.06
2022-10-24T01:43:30.104Z,95537.56
2022-10-24T01:46:07.697Z,95535.72
2022-10-24T01:48:44.911Z,95530.09
2022-10-24T01:51:18.873Z,95545.22
2022-10-24T01:53:49.056Z,95524.63
2022-10-24T01:56:18.577Z,95508.94
2022-10-24T01:58:48.000Z,95507.84
2022-10-24T02:01:25.457Z,95511.63
2022-10-24T02:03:59.448Z,95502.72
2022-10-24T02:06:34.940Z,95503.81
2022-10-24T02:09:10.974Z,95485.69
2022-10-24T02:11:42.120Z,95477.06
2022-10-24T02:14:18.943Z,95466.00
2022-10-24T02:16:49.847Z,95469.59
2022-10-24T02:19:20.237Z,95483.63
2022-10-24T02:22:03.328Z,95476.13
2022-10-24T02:24:39.552Z,95481.00
2022-10-24T02:27:15.920Z,95489.09
2022-10-24T02:29:54.264Z,95484.50
2022-10-24T02:32:31.344Z,95487.78
2022-10-24T02:35:01.916Z,95470.75
2022-10-24T02:37:33.896Z,95447.25
2022-10-24T02:40:07.884Z,95460.00
2022-10-24T02:42:39.542Z,95475.41
2022-10-24T02:45:13.168Z,95465.88
2022-10-24T02:47:46.570Z,95469.66
2022-10-24T02:50:16.361Z,95465.94
2022-10-24T02:52:47.063Z,95471.56
2022-10-24T02:55:16.700Z,95472.13
2022-10-24T02:57:46.100Z,95467.31
2022-10-24T03:00:18.585Z,95467.31
2022-10-24T03:02:49.630Z,95474.91
2022-10-24T03:05:19.381Z,95469.16
2022-10-24T03:07:48.765Z,95475.59
2022-10-24T03:10:18.613Z,95483.84
2022-10-24T03:12:48.068Z,95481.44
2022-10-24T03:15:17.908Z,95490.63
2022-10-24T03:17:49.326Z,95493.28
2022-10-24T03:20:19.324Z,95485.84
2022-10-24T03:22:48.753Z,95497.84
2022-10-24T03:25:18.555Z,95495.00
2022-10-24T03:27:50.493Z,95491.22
2022-10-24T03:30:20.239Z,95492.88
2022-10-24T03:32:50.968Z,95492.09
2022-10-24T03:35:20.565Z,95497.25
2022-10-24T03:37:50.045Z,95498.66
2022-10-24T03:40:19.746Z,95490.13
2022-10-24T03:42:49.196Z,95489.88
2022-10-24T03:45:18.787Z,95505.00
2022-10-24T03:47:48.182Z,95481.78
2022-10-24T03:50:19.321Z,95504.22
2022-10-24T03:52:48.941Z,95507.63
2022-10-24T03:55:18.564Z,95501.41
2022-10-24T03:57:48.176Z,95509.25
2022-10-24T04:00:19.529Z,95522.84
2022-10-24T04:02:50.785Z,95527.97
2022-10-24T04:05:21.565Z,95528.41
2022-10-24T04:07:50.931Z,95531.34
2022-10-24T04:10:20.447Z,95535.44
2022-10-24T04:12:49.842Z,95522.47
2022-10-24T04:15:19.459Z,95528.69
2022-10-24T04:17:49.064Z,95533.09
2022-10-24T04:20:20.443Z,95533.97
2022-10-24T04:22:51.323Z,95535.84
2022-10-24T04:25:21.145Z,95528.59
2022-10-24T04:27:50.533Z,95526.75
2022-10-24T04:30:20.224Z,95522.22
2022-10-24T04:32:49.710Z,95532.22
2022-10-24T04:35:19.266Z,95531.72
2022-10-24T04:37:50.034Z,95529.56
2022-10-24T04:40:19.727Z,95533.66
2022-10-24T04:42:49.184Z,95535.59
2022-10-24T04:45:18.844Z,95547.78
2022-10-24T04:47:48.388Z,95542.66
2022-10-24T04:50:18.038Z,95533.47
2022-10-24T04:52:47.421Z,95534.78
2022-10-24T04:55:18.509Z,95522.34
2022-10-24T04:57:48.070Z,95527.47
2022-10-24T05:00:18.462Z,95529.38
2022-10-24T05:02:48.022Z,95534.78
2022-10-24T05:05:18.082Z,95519.66
2022-10-24T05:07:47.968Z,95523.38
2022-10-24T05:10:19.055Z,95527.09
2022-10-24T05:12:48.780Z,95514.09
2022-10-24T05:15:18.614Z,95522.69
2022-10-24T05:17:48.021Z,95528.59
2022-10-24T05:20:17.575Z,95538.00
2022-10-24T05:22:47.349Z,95542.50
2022-10-24T05:25:18.878Z,95555.44
2022-10-24T05:27:48.414Z,95557.53
2022-10-24T05:30:17.939Z,95559.13
2022-10-24T05:32:47.675Z,95558.84
2022-10-24T05:35:17.505Z,95561.31
2022-10-24T05:37:46.977Z,95571.09
2022-10-24T05:40:17.808Z,95569.31
2022-10-24T05:42:47.497Z,95579.06
2022-10-24T05:45:17.777Z,95587.06
2022-10-24T05:47:47.459Z,95582.75
2022-10-24T05:50:17.421Z,95582.03
2022-10-24T05:52:47.437Z,95584.75
2022-10-24T05:55:18.562Z,95586.13
2022-10-24T05:57:48.332Z,95585.63
2022-10-24T06:00:19.074Z,95588.59
2022-10-24T06:02:48.656Z,95579.34
2022-10-24T06:05:18.119Z,95580.44
2022-10-24T06:07:48.414Z,95585.63
2022-10-24T06:10:19.860Z,95592.06
2022-10-24T06:12:49.320Z,95588.25
2022-10-24T06:15:18.906Z,95585.56
2022-10-24T06:17:48.433Z,95577.66
2022-10-24T06:20:18.587Z,95579.84
2022-10-24T06:22:50.074Z,95581.75
2022-10-24T06:25:20.890Z,95572.75
2022-10-24T06:27:50.425Z,95575.78
2022-10-24T06:30:20.212Z,95577.44
2022-10-24T06:32:50.024Z,95569.91
2022-10-24T06:35:20.024Z,95577.22
2022-10-24T06:37:49.920Z,95571.28
2022-10-24T06:40:21.153Z,95563.75
2022-10-24T06:42:50.572Z,95547.00
2022-10-24T06:45:21.764Z,95539.16
2022-10-24T06:47:54.046Z,95546.75
2022-10-24T06:50:24.170Z,95554.88
2022-10-24T06:52:53.582Z,95549.75
2022-10-24T06:55:24.405Z,95548.94
2022-10-24T06:57:55.197Z,95562.19
2022-10-24T07:00:24.642Z,95561.09
2022-10-24T07:02:54.291Z,95567.88
2022-10-24T07:05:23.742Z,95574.66
2022-10-24T07:07:53.259Z,95578.13
2022-10-24T07:10:24.373Z,95574.91
2022-10-24T07:12:53.737Z,95581.34
2022-10-24T07:15:23.129Z,95582.03
2022-10-24T07:17:52.522Z,95582.91
2022-10-24T07:20:22.137Z,95588.50
2022-10-24T07:22:51.548Z,95590.38
2022-10-24T07:25:21.245Z,95587.16
2022-10-24T07:27:54.597Z,95591.78
2022-10-24T07:30:24.475Z,95603.91
2022-10-24T07:32:55.513Z,95601.69
2022-10-24T07:35:24.908Z,95596.59
2022-10-24T07:37:54.466Z,95611.75
2022-10-24T07:40:24.126Z,95615.19
2022-10-24T07:42:54.898Z,95631.06
2022-10-24T07:45:24.370Z,95625.81
2022-10-24T07:47:53.988Z,95626.16
2022-10-24T07:50:23.461Z,95632.97
2022-10-24T07:52:52.861Z,95621.63
2022-10-24T07:55:22.314Z,95625.72
2022-10-24T07:57:51.788Z,95623.88
2022-10-24T08:00:23.188Z,95629.56
2022-10-24T08:02:52.857Z,95629.88
2022-10-24T08:05:23.150Z,95621.97
2022-10-24T08:07:56.238Z,95622.78
2022-10-24T08:10:41.339Z,95631.13
2022-10-24T08:13:13.518Z,95621.97
2022-10-24T08:15:44.620Z,95619.19
2022-10-24T08:18:13.995Z,95613.50
2022-10-24T08:20:43.512Z,95622.44
2022-10-24T08:23:12.944Z,95620.75
2022-10-24T08:25:42.480Z,95618.09
2022-10-24T08:28:11.840Z,95605.09
2022-10-24T08:30:41.258Z,95606.78
2022-10-24T08:33:15.860Z,95613.50
2022-10-24T08:35:47.986Z,95608.56
2022-10-24T08:38:17.396Z,95609.06
2022-10-24T08:40:49.842Z,95611.03
2022-10-24T08:43:20.993Z,95611.31
2022-10-24T08:46:05.794Z,95610.50
2022-10-24T08:48:45.156Z,95610.28
2022-10-24T08:51:30.813Z,95614.81
2022-10-24T08:54:02.952Z,95607.50
2022-10-24T08:56:35.110Z,95610.75
2022-10-24T08:59:06.049Z,95615.56
2022-10-24T09:01:45.688Z,95619.31
2022-10-24T09:04:21.081Z,95620.13
2022-10-24T09:06:53.251Z,95626.06
2022-10-24T09:09:31.445Z,95619.59
2022-10-24T09:12:04.500Z,95624.50
2022-10-24T09:14:36.875Z,95615.19
2022-10-24T09:17:16.976Z,95618.97
2022-10-24T09:19:53.819Z,95616.94
2022-10-24T09:22:25.463Z,95615.38
2022-10-24T09:25:00.271Z,95619.75
2022-10-24T09:27:34.601Z,95618.41
2022-10-24T09:30:07.805Z,95624.13
2022-10-24T09:32:37.956Z,95615.44
2022-10-24T09:35:18.129Z,95612.44
2022-10-24T09:37:51.429Z,95611.06
2022-10-24T09:40:25.275Z,95618.31
2022-10-24T09:43:00.782Z,95621.06
2022-10-24T09:45:41.259Z,95618.88
2022-10-24T09:48:27.559Z,95630.03
2022-10-24T09:51:01.871Z,95632.19
2022-10-24T09:53:36.411Z,95630.09
2022-10-24T09:56:12.780Z,95633.59
2022-10-24T09:58:43.958Z,95644.72
2022-10-24T10:01:23.660Z,95639.59
2022-10-24T10:04:09.348Z,95635.34
2022-10-24T10:06:47.362Z,95620.50
2022-10-24T10:09:27.281Z,95628.09
2022-10-24T10:12:03.168Z,95633.72
2022-10-24T10:14:33.008Z,95634.75
2022-10-24T10:17:06.750Z,95632.66
2022-10-24T10:19:40.328Z,95625.34
2022-10-24T10:22:27.330Z,95645.88
2022-10-24T10:24:57.986Z,95654.56
2022-10-24T10:27:35.718Z,95651.84
2022-10-24T10:30:21.824Z,95649.44
2022-10-24T10:33:17.228Z,95655.09
2022-10-24T10:35:55.549Z,95651.34
2022-10-24T10:38:52.115Z,95658.38
2022-10-24T10:41:40.168Z,95661.06
2022-10-24T10:44:40.015Z,95658.41
2022-10-24T10:47:27.981Z,95663.00
2022-10-24T10:50:00.069Z,95673.78
2022-10-24T10:52:33.997Z,95671.94
2022-10-24T10:55:31.501Z,95677.94
2022-10-24T10:58:17.474Z,95674.09
2022-10-24T11:01:00.604Z,95683.88
2022-10-24T11:03:38.855Z,95680.66
2022-10-24T11:06:30.029Z,95689.81
2022-10-24T11:09:32.759Z,95699.81
2022-10-24T11:12:12.871Z,95694.41
2022-10-24T11:14:50.113Z,95707.31
2022-10-24T11:17:24.726Z,95710.84
2022-10-24T11:20:11.009Z,95708.16
2022-10-24T11:22:48.149Z,95703.03
2022-10-24T11:25:27.928Z,95696.88
2022-10-24T11:28:08.715Z,95690.94
2022-10-24T11:30:48.851Z,95687.72
2022-10-24T11:33:24.414Z,95689.38
2022-10-24T11:36:16.502Z,95693.97
2022-10-24T11:38:53.765Z,95694.78
2022-10-24T11:41:42.961Z,95694.28
2022-10-24T11:44:32.402Z,95690.44
2022-10-24T11:47:29.540Z,95702.59
2022-10-24T11:50:11.448Z,95699.34
2022-10-24T11:52:46.530Z,95703.97
2022-10-24T11:55:22.412Z,95716.72
2022-10-24T11:57:59.351Z,95715.59
2022-10-24T12:00:43.085Z,95714.28
2022-10-24T12:04:14.384Z,95728.91
2022-10-24T12:07:35.862Z,95722.97
2022-10-24T12:10:32.725Z,95720.00
2022-10-24T12:13:33.907Z,95698.38
2022-10-24T12:16:16.086Z,95699.19
2022-10-24T12:18:49.112Z,95692.97
2022-10-24T12:21:25.718Z,95687.88
2022-10-24T12:24:00.296Z,95684.63
2022-10-24T12:26:32.344Z,95688.41
2022-10-24T12:29:05.673Z,95677.66
2022-10-24T12:31:38.717Z,95682.75
2022-10-24T12:34:48.902Z,95686.25
2022-10-24T12:37:37.225Z,95690.00
2022-10-24T12:40:51.546Z,95678.38
2022-10-24T12:43:44.323Z,95685.94
2022-10-24T12:46:56.077Z,95693.50
2022-10-24T12:49:30.621Z,95690.00
2022-10-24T12:52:39.129Z,95695.69
2022-10-24T12:56:06.761Z,95694.63
2022-10-24T12:58:39.073Z,95689.25
2022-10-24T13:01:24.089Z,95694.94
2022-10-24T13:08:13.156Z,95672.56
2022-10-24T13:11:03.662Z,95648.00
2022-10-24T13:14:12.606Z,95643.09
2022-10-24T13:16:58.905Z,95643.97
2022-10-24T13:19:34.079Z,95638.84
2022-10-24T13:22:04.350Z,95636.13
2022-10-24T13:24:36.990Z,95629.94
2022-10-24T13:27:31.797Z,95616.69
2022-10-24T13:30:26.331Z,95589.97
2022-10-24T13:33:43.512Z,95588.34
2022-10-24T13:36:27.974Z,95593.75
2022-10-24T13:39:02.993Z,95606.44
2022-10-24T13:41:36.336Z,95619.69
2022-10-24T13:44:21.999Z,95623.19
2022-10-24T13:46:57.548Z,95591.56
2022-10-24T13:49:34.049Z,95572.13
2022-10-24T13:52:15.694Z,95568.63
2022-10-24T13:54:51.257Z,95584.31
2022-10-24T13:57:33.585Z,95589.75
2022-10-24T14:00:09.553Z,95597.28
2022-10-24T14:02:43.750Z,95600.84
2022-10-24T14:05:31.010Z,95608.41
2022-10-24T14:08:03.582Z,95599.28
2022-10-24T14:10:33.788Z,95603.88
2022-10-24T14:13:05.042Z,95602.78
2022-10-24T14:15:34.757Z,95604.16
2022-10-24T14:18:14.320Z,95603.94
2022-10-24T14:20:45.630Z,95603.66
2022-10-24T14:23:28.044Z,95596.34
2022-10-24T14:26:01.902Z,95584.16
2022-10-24T14:28:35.817Z,95558.22
2022-10-24T14:31:09.204Z,95534.78
2022-10-24T14:33:47.899Z,95593.41
2022-10-24T14:36:20.437Z,95599.88
2022-10-24T14:38:56.205Z,95586.63
2022-10-24T14:41:30.644Z,95572.88
2022-10-24T14:44:01.294Z,95575.06
2022-10-24T14:46:39.438Z,95581.84
2022-10-24T14:49:30.643Z,95584.81
2022-10-24T14:52:09.221Z,95605.91
2022-10-24T14:54:42.932Z,95595.63
2022-10-24T14:57:23.944Z,95602.88
2022-10-24T14:59:56.640Z,95595.91
2022-10-24T15:02:31.019Z,95602.13
2022-10-24T15:05:31.433Z,95614.06
2022-10-24T15:08:22.782Z,95612.16
2022-10-24T15:11:17.299Z,95599.53
2022-10-24T15:14:05.628Z,95592.00
2022-10-24T15:16:39.732Z,95600.34
2022-10-24T15:19:18.039Z,95603.59
2022-10-24T15:21:48.652Z,95602.25
2022-10-24T15:24:25.594Z,95600.66
2022-10-24T15:27:12.776Z,95615.50
2022-10-24T15:29:42.538Z,95617.97
2022-10-24T15:32:12.309Z,95618.22
2022-10-24T15:34:41.746Z,95618.22
2022-10-24T15:37:21.085Z,95624.72
2022-10-24T15:39:51.137Z,95620.41
2022-10-24T15:42:22.942Z,95621.75
2022-10-24T15:44:52.385Z,95623.38
2022-10-24T15:47:23.842Z,95613.91
2022-10-24T15:49:53.327Z,95620.97
2022-10-24T15:52:22.900Z,95625.03
2022-10-24T15:54:52.392Z,95631.22
2022-10-24T15:57:23.288Z,95635.00
2022-10-24T15:59:52.739Z,95632.91
2022-10-24T16:02:25.399Z,95634.00
2022-10-24T16:04:54.893Z,95632.09
2022-10-24T16:07:24.378Z,95637.25
2022-10-24T16:09:53.839Z,95643.44
2022-10-24T16:12:24.660Z,95638.59
2022-10-24T16:14:54.228Z,95629.72
2022-10-24T16:17:23.741Z,95634.31
2022-10-24T16:19:53.312Z,95636.47
2022-10-24T16:22:22.790Z,95639.44
2022-10-24T16:24:52.232Z,95643.19
2022-10-24T16:27:21.715Z,95645.09
2022-10-24T16:29:52.855Z,95639.47
2022-10-24T16:32:22.344Z,95646.22
2022-10-24T16:34:52.413Z,95639.72
2022-10-24T16:37:21.883Z,95643.50
2022-10-24T16:39:51.333Z,95652.41
2022-10-24T16:42:22.385Z,95653.47
2022-10-24T16:44:53.641Z,95659.97
2022-10-24T16:47:23.272Z,95659.97
2022-10-24T16:49:57.541Z,95656.72
2022-10-24T16:52:29.123Z,95653.78
2022-10-24T16:54:58.849Z,95654.03
2022-10-24T16:57:28.429Z,95655.91
2022-10-24T16:59:59.225Z,95656.72
2022-10-24T17:02:28.676Z,95646.47
2022-10-24T17:04:59.396Z,95651.88
2022-10-24T17:07:29.001Z,95652.94
2022-10-24T17:09:58.619Z,95649.69
2022-10-24T17:12:28.044Z,95655.91
2022-10-24T17:14:58.947Z,95658.88
2022-10-24T17:17:28.790Z,95661.31
2022-10-24T17:19:58.381Z,95668.59
2022-10-24T17:22:29.337Z,95672.13
2022-10-24T17:24:59.672Z,95671.09
2022-10-24T17:27:29.528Z,95662.72
2022-10-24T17:30:00.936Z,95667.84
2022-10-24T17:32:32.864Z,95664.59
2022-10-24T17:35:04.221Z,95666.97
2022-10-24T17:37:52.357Z,95666.44
2022-10-24T17:40:26.370Z,95662.13
2022-10-24T17:42:56.654Z,95662.38
2022-10-24T17:45:28.223Z,95656.19
2022-10-24T17:47:58.044Z,95663.72
2022-10-24T17:50:30.155Z,95666.16
2022-10-24T17:53:00.433Z,95663.69
2022-10-24T17:55:47.214Z,95671.22
2022-10-24T17:58:17.859Z,95664.75
2022-10-24T18:00:48.789Z,95665.03
2022-10-24T18:03:19.375Z,95656.94
2022-10-24T18:05:48.853Z,95664.50
2022-10-24T18:08:18.433Z,95667.75
2022-10-24T18:10:47.881Z,95667.44
2022-10-24T18:13:17.548Z,95665.47
2022-10-24T18:15:48.459Z,95669.81
2022-10-24T18:18:17.984Z,95660.38
2022-10-24T18:20:47.396Z,95655.84
2022-10-24T18:23:16.954Z,95659.84
2022-10-24T18:25:46.431Z,95653.09
2022-10-24T18:28:15.890Z,95654.44
2022-10-24T18:30:45.429Z,95649.56
2022-10-24T18:33:16.225Z,95647.41
2022-10-24T18:35:45.754Z,95646.34
2022-10-24T18:38:18.649Z,95652.00
2022-10-24T18:40:49.053Z,95659.34
2022-10-24T18:43:19.578Z,95661.25
2022-10-24T18:45:51.512Z,95673.69
2022-10-24T18:48:23.617Z,95678.03
2022-10-24T18:50:53.340Z,95672.88
2022-10-24T18:53:28.502Z,95675.84
2022-10-24T18:55:58.757Z,95680.16
2022-10-24T18:58:28.741Z,95676.38
2022-10-24T19:01:00.772Z,95665.59
2022-10-24T19:03:37.003Z,95649.72
2022-10-24T19:06:19.138Z,95650.53
2022-10-24T19:08:48.868Z,95646.81
2022-10-24T19:11:19.063Z,95638.19
2022-10-24T19:13:48.869Z,95635.78
2022-10-24T19:16:27.495Z,95638.47
2022-10-24T19:19:02.793Z,95636.59
2022-10-24T19:21:32.204Z,95654.69
2022-10-24T19:24:01.867Z,95654.94
2022-10-24T19:26:31.430Z,95663.84
2022-10-24T19:29:03.508Z,95659.25
2022-10-24T19:31:35.229Z,95664.94
2022-10-24T19:34:06.155Z,95659.81
2022-10-24T19:36:35.565Z,95655.75
2022-10-24T19:39:05.527Z,95647.13
2022-10-24T19:41:35.518Z,95652.28
2022-10-24T19:44:05.524Z,95659.00
2022-10-24T19:46:34.975Z,95653.09
2022-10-24T19:49:05.859Z,95649.56
2022-10-24T19:51:35.418Z,95645.25
2022-10-24T19:54:05.090Z,95642.03
2022-10-24T19:56:34.514Z,95643.13
2022-10-24T19:59:03.945Z,95645.53
2022-10-24T20:01:33.611Z,95655.25
2022-10-24T20:04:03.312Z,95656.63
2022-10-24T20:06:34.125Z,95662.84
2022-10-24T20:09:03.598Z,95664.47
2022-10-24T20:11:33.230Z,95667.16
2022-10-24T20:14:02.621Z,95673.91
2022-10-24T20:16:33.468Z,95664.75
2022-10-24T20:19:03.775Z,95676.88
2022-10-24T20:21:37.434Z,95666.66
2022-10-24T20:24:08.383Z,95670.16
2022-10-24T20:26:37.888Z,95672.03
2022-10-24T20:29:07.492Z,95671.50
2022-10-24T20:31:40.779Z,95676.31
2022-10-24T20:34:10.571Z,95672.59
2022-10-24T20:36:44.489Z,95679.56
2022-10-24T20:39:16.000Z,95665.84
2022-10-24T20:41:47.194Z,95687.38
2022-10-24T20:44:18.605Z,95689.22
2022-10-24T20:46:49.313Z,95685.47
2022-10-24T20:49:18.775Z,95690.56
2022-10-24T20:51:49.698Z,95683.53
2022-10-24T20:54:20.194Z,95684.34
2022-10-24T20:56:49.670Z,95693.19
2022-10-24T20:59:19.086Z,95698.56
2022-10-24T21:01:48.611Z,95698.56
2022-10-24T21:04:20.737Z,95705.31
2022-10-24T21:06:51.914Z,95699.38
2022-10-24T21:09:21.370Z,95705.56
2022-10-24T21:11:50.777Z,95701.81
2022-10-24T21:14:21.269Z,95701.28
2022-10-24T21:16:50.891Z,95707.47
2022-10-24T21:19:20.321Z,95711.50
2022-10-24T21:21:51.086Z,95718.22
2022-10-24T21:24:20.896Z,95721.97
2022-10-24T21:26:50.317Z,95725.78
2022-10-24T21:29:34.998Z,95731.16
2022-10-24T21:32:04.873Z,95734.38
2022-10-24T21:34:34.977Z,95741.91
2022-10-24T21:37:06.625Z,95730.84
2022-10-24T21:39:36.099Z,95741.88
2022-10-24T21:42:05.951Z,95737.00
2022-10-24T21:44:36.251Z,95746.44
2022-10-24T21:47:05.896Z,95749.13
2022-10-24T21:49:35.293Z,95745.63
2022-10-24T21:52:06.287Z,95759.88
2022-10-24T21:54:35.907Z,95788.84
2022-10-24T21:57:05.442Z,95791.22
2022-10-24T21:59:34.887Z,95777.53
2022-10-24T22:02:04.641Z,95785.59
2022-10-24T22:04:34.258Z,95788.53
2022-10-24T22:07:05.899Z,95783.97
2022-10-24T22:09:35.358Z,95767.81
2022-10-24T22:12:05.586Z,95788.47
2022-10-24T22:14:35.110Z,95797.06
2022-10-24T22:17:04.546Z,95791.09
2022-10-24T22:19:33.951Z,95793.47
2022-10-24T22:22:04.703Z,95791.00
2022-10-24T22:24:34.100Z,95799.03
2022-10-24T22:27:03.533Z,95812.66
2022-10-24T22:29:32.936Z,95803.78
2022-10-24T22:32:03.314Z,95801.34
2022-10-24T22:34:33.738Z,95800.50
2022-10-24T22:37:18.358Z,95815.19
2022-10-24T22:39:48.811Z,95815.16
2022-10-24T22:42:20.286Z,95827.44
2022-10-24T22:44:51.308Z,95825.75
2022-10-24T22:47:59.349Z,95835.38
2022-10-24T22:50:50.226Z,95842.31
2022-10-24T22:53:25.965Z,95851.69
2022-10-24T22:56:19.741Z,95845.22
2022-10-24T22:58:50.718Z,95852.44
2022-10-24T23:01:45.002Z,95854.53
2022-10-24T23:04:28.506Z,95849.13
2022-10-24T23:07:04.014Z,95850.41
2022-10-24T23:09:34.669Z,95863.84
2022-10-24T23:12:11.978Z,95865.91
2022-10-24T23:14:42.591Z,95859.91
2022-10-24T23:17:15.442Z,95853.19
2022-10-24T23:19:46.922Z,95860.69
2022-10-24T23:22:25.017Z,95859.56
2022-10-24T23:25:00.355Z,95860.63
2022-10-24T23:27:38.032Z,95851.75
2022-10-24T23:30:18.644Z,95852.31
2022-10-24T23:32:50.426Z,95852.63
2022-10-24T23:35:23.730Z,95840.53
2022-10-24T23:37:55.635Z,95849.63
2022-10-24T23:40:36.139Z,95849.94
2022-10-24T23:43:15.773Z,95848.13
2022-10-24T23:45:53.844Z,95848.81
2022-10-24T23:48:46.989Z,95853.00
2022-10-24T23:51:24.582Z,95847.13
2022-10-24T23:53:56.757Z,95842.31
2022-10-24T23:56:30.506Z,95839.13
2022-10-24T23:59:00.087Z,95838.06
